Time;durP1;ratioP1;P1;durP2;ratioP2;P2;SDS_P1;SDS_P2;PMS_P1;PMS_P2;Temp;Humidity;BMP_temperature;BMP_pressure;BME280_temperature;BME280_humidity;BME280_pressure;Samples;Min_cycle;Max_cycle;Signal;HPM_P1;HPM_P2
2022/12/03 00:02:15;;;;;;;12.48;8.07;;;4.10;99.90;;;;;;5131101;27;20043;-80
2022/12/03 00:04:40;;;;;;;17.85;8.30;;;4.20;99.90;;;;;;5113167;27;20047;-79
2022/12/03 00:07:06;;;;;;;17.05;8.40;;;4.20;99.90;;;;;;5115029;27;20042;-79
2022/12/03 00:09:32;;;;;;;15.30;8.63;;;5.10;99.90;;;;;;5130711;27;20405;-79
2022/12/03 00:11:58;;;;;;;15.07;7.78;;;4.20;99.90;;;;;;5149733;27;20408;-80
2022/12/03 00:14:23;;;;;;;14.35;8.35;;;4.30;99.90;;;;;;5149720;27;20071;-80
2022/12/03 00:16:49;;;;;;;15.15;8.80;;;4.40;99.90;;;;;;5113104;27;20074;-79
2022/12/03 00:19:15;;;;;;;15.60;8.60;;;4.30;99.90;;;;;;5149689;27;20083;-79
2022/12/03 00:21:40;;;;;;;12.18;7.32;;;4.30;99.90;;;;;;5149056;27;20370;-79
2022/12/03 00:24:06;;;;;;;17.38;8.40;;;5.00;99.90;;;;;;5150321;27;20035;-79
2022/12/03 00:26:32;;;;;;;12.70;7.93;;;4.30;99.90;;;;;;5129810;27;20043;-80
2022/12/03 00:28:58;;;;;;;12.60;6.93;;;4.30;99.90;;;;;;5114328;27;20050;-79
2022/12/03 00:31:24;;;;;;;15.55;7.80;;;5.00;99.90;;;;;;5130308;27;20057;-80
2022/12/03 00:33:50;;;;;;;15.57;8.55;;;4.40;99.90;;;;;;5130511;27;20436;-80
2022/12/03 00:36:17;;;;;;;15.38;8.38;;;5.40;99.90;;;;;;5149309;27;20103;-79
2022/12/03 00:38:42;;;;;;;14.73;7.82;;;4.40;99.90;;;;;;5147780;27;20039;-80
2022/12/03 00:41:08;;;;;;;16.60;8.05;;;4.40;99.90;;;;;;5149386;27;20050;-79
2022/12/03 00:43:34;;;;;;;16.48;7.80;;;4.40;99.90;;;;;;5147957;27;20038;-79
2022/12/03 00:45:59;;;;;;;16.33;8.23;;;4.70;99.90;;;;;;5149692;27;20652;-80
2022/12/03 00:48:25;;;;;;;13.70;7.63;;;4.50;99.90;;;;;;5129445;27;20528;-80
2022/12/03 00:50:51;;;;;;;14.23;7.85;;;4.50;99.90;;;;;;5113209;27;20107;-80
2022/12/03 00:53:17;;;;;;;15.43;8.40;;;4.50;99.90;;;;;;5149038;27;20123;-80
2022/12/03 00:55:43;;;;;;;15.98;7.97;;;4.90;99.90;;;;;;5130678;27;20046;-79
2022/12/03 00:58:09;;;;;;;12.98;8.15;;;4.50;99.90;;;;;;5131272;27;20045;-79
2022/12/03 01:00:39;;;;;;;15.63;8.05;;;4.50;99.90;;;;;;5149525;27;20079;-79
2022/12/03 01:03:05;;;;;;;16.55;8.63;;;4.50;99.90;;;;;;5118237;27;20123;-80
2022/12/03 01:05:30;;;;;;;12.00;7.18;;;5.30;99.90;;;;;;5151817;27;20046;-79
2022/12/03 01:07:56;;;;;;;15.80;8.05;;;4.90;99.90;;;;;;5151680;27;20123;-80
2022/12/03 01:10:22;;;;;;;16.33;8.45;;;4.70;99.90;;;;;;5132080;27;20069;-80
2022/12/03 01:12:47;;;;;;;14.40;8.25;;;4.60;99.90;;;;;;5113382;27;20038;-80
2022/12/03 01:15:13;;;;;;;14.40;8.00;;;4.60;99.90;;;;;;5130245;27;20047;-80
2022/12/03 01:17:39;;;;;;;12.50;7.78;;;4.60;99.90;;;;;;5148664;27;20085;-80
2022/12/03 01:20:06;;;;;;;16.25;7.93;;;4.70;99.90;;;;;;5149881;27;20038;-80
2022/12/03 01:22:32;;;;;;;12.40;7.65;;;4.70;99.90;;;;;;5129031;27;20069;-80
2022/12/03 01:24:57;;;;;;;12.13;7.70;;;4.90;99.90;;;;;;5148547;27;20080;-78
2022/12/03 01:27:23;;;;;;;17.02;8.35;;;4.70;99.90;;;;;;5129919;27;20046;-78
2022/12/03 01:29:49;;;;;;;14.30;7.75;;;4.90;99.90;;;;;;5112368;27;20042;-79
2022/12/03 01:32:20;;;;;;;13.98;8.23;;;4.70;99.90;;;;;;5095906;27;20049;-79
2022/12/03 01:34:49;;;;;;;15.70;8.82;;;4.70;99.90;;;;;;5112802;27;20050;-79
2022/12/03 01:37:15;;;;;;;15.18;8.43;;;4.70;99.90;;;;;;5130428;27;20046;-80
2022/12/03 01:39:41;;;;;;;14.55;8.63;;;5.70;99.90;;;;;;5111294;27;20538;-78
2022/12/03 01:42:11;;;;;;;16.40;9.30;;;5.20;99.90;;;;;;5130349;27;20034;-79
2022/12/03 01:44:39;;;;;;;15.13;8.15;;;4.70;99.90;;;;;;5147783;27;20050;-79
2022/12/03 01:47:11;;;;;;;14.35;8.02;;;4.70;99.90;;;;;;5129352;27;20126;-79
2022/12/03 01:49:49;;;;;;;15.68;8.18;;;5.50;99.90;;;;;;5129855;27;20708;-79
2022/12/03 01:52:17;;;;;;;17.02;8.30;;;4.70;99.90;;;;;;5107337;27;20062;-78
2022/12/03 01:54:46;;;;;;;16.25;8.32;;;5.00;99.90;;;;;;5109460;27;20230;-79
2022/12/03 01:57:26;;;;;;;14.90;8.40;;;4.70;99.90;;;;;;5126368;27;20371;-79
2022/12/03 01:59:53;;;;;;;13.48;8.40;;;4.70;99.90;;;;;;5125368;27;20054;-79
2022/12/03 02:02:23;;;;;;;14.90;8.63;;;5.40;99.90;;;;;;5127417;27;20118;-79
2022/12/03 02:04:51;;;;;;;14.95;8.85;;;5.00;99.90;;;;;;5124892;27;20031;-80
2022/12/03 02:07:19;;;;;;;19.20;9.45;;;4.60;99.90;;;;;;5126060;27;20050;-80
2022/12/03 02:09:45;;;;;;;17.08;9.43;;;4.60;99.90;;;;;;5125848;27;20046;-80
2022/12/03 02:12:13;;;;;;;13.77;8.85;;;4.60;99.90;;;;;;5126628;27;20051;-80
2022/12/03 02:14:39;;;;;;;14.52;8.18;;;4.60;99.90;;;;;;5126470;27;20082;-80
2022/12/03 02:17:04;;;;;;;15.00;8.38;;;4.60;99.90;;;;;;5126825;27;20084;-80
2022/12/03 02:19:30;;;;;;;14.90;8.43;;;4.60;99.90;;;;;;5126845;27;20038;-80
2022/12/03 02:22:18;;;;;;;14.05;8.63;;;5.60;99.90;;;;;;5108064;27;20100;-80
2022/12/03 02:25:09;;;;;;;;;;;4.60;99.90;;;;;;5110586;27;20134;-80
2022/12/03 02:27:34;;;;;;;13.65;8.73;;;4.60;99.90;;;;;;5124313;27;19920;-80
2022/12/03 02:30:00;;;;;;;16.58;8.43;;;4.60;99.90;;;;;;5108120;27;20041;-80
2022/12/03 02:32:26;;;;;;;13.38;7.90;;;4.60;99.90;;;;;;5125005;27;20083;-80
2022/12/03 02:34:52;;;;;;;13.98;8.10;;;5.40;99.90;;;;;;5107099;28;20151;-80
2022/12/03 02:37:33;;;;;;;15.20;9.18;;;4.50;99.90;;;;;;5127358;27;20035;-80
2022/12/03 02:40:06;;;;;;;16.73;9.68;;;4.60;99.90;;;;;;5124122;27;20137;-81
2022/12/03 02:42:34;;;;;;;15.18;8.65;;;4.50;99.90;;;;;;5127331;27;20118;-80
2022/12/03 02:45:31;;;;;;;15.32;9.35;;;4.60;99.90;;;;;;5125634;28;20088;-80
2022/12/03 02:48:05;;;;;;;17.77;8.82;;;4.60;99.90;;;;;;5087192;28;20490;-80
2022/12/03 02:50:35;;;;;;;17.70;8.63;;;4.50;99.90;;;;;;5127035;27;20051;-80
2022/12/03 02:53:04;;;;;;;16.70;9.68;;;4.50;99.90;;;;;;5143001;27;20069;-80
2022/12/03 02:55:31;;;;;;;14.55;8.23;;;4.50;99.90;;;;;;5128844;27;20462;-80
2022/12/03 02:57:57;;;;;;;15.63;9.38;;;4.40;99.90;;;;;;5127671;27;20080;-80
2022/12/03 03:00:23;;;;;;;17.63;10.13;;;5.10;99.90;;;;;;5146568;27;20515;-80
2022/12/03 03:02:52;;;;;;;20.05;9.73;;;4.40;99.90;;;;;;5130981;27;20046;-80
2022/12/03 03:05:21;;;;;;;18.10;10.13;;;4.40;99.90;;;;;;5115228;27;20143;-80
2022/12/03 03:07:48;;;;;;;16.48;9.10;;;4.30;99.90;;;;;;5151678;27;20477;-80
2022/12/03 03:10:17;;;;;;;16.67;8.82;;;4.30;99.90;;;;;;5131065;27;20043;-80
2022/12/03 03:12:43;;;;;;;18.42;10.15;;;4.30;99.90;;;;;;5150935;27;20074;-80
2022/12/03 03:15:10;;;;;;;17.30;9.95;;;4.30;99.90;;;;;;5132214;27;20082;-80
2022/12/03 03:17:36;;;;;;;17.67;10.40;;;4.30;99.90;;;;;;5150539;27;20099;-80
2022/12/03 03:20:04;;;;;;;17.45;9.70;;;4.30;99.90;;;;;;5132515;27;20571;-80
2022/12/03 03:22:35;;;;;;;16.33;10.02;;;4.20;99.90;;;;;;5131354;27;20047;-80
2022/12/03 03:25:01;;;;;;;17.70;10.15;;;4.20;99.90;;;;;;5132397;27;20524;-80
2022/12/03 03:27:27;;;;;;;19.13;11.10;;;4.20;99.90;;;;;;5131183;27;20139;-80
2022/12/03 03:29:55;;;;;;;16.83;9.75;;;5.20;99.90;;;;;;5115675;27;20034;-80
2022/12/03 03:32:20;;;;;;;18.17;10.85;;;4.20;99.90;;;;;;5131567;27;20367;-80
2022/12/03 03:34:46;;;;;;;19.15;11.02;;;4.20;99.90;;;;;;5114302;27;20049;-80
2022/12/03 03:37:12;;;;;;;16.00;9.95;;;4.10;99.90;;;;;;5114949;27;20397;-80
2022/12/03 03:39:38;;;;;;;16.50;10.30;;;4.20;99.90;;;;;;5113781;27;20081;-80
2022/12/03 03:42:05;;;;;;;18.20;10.57;;;4.30;99.90;;;;;;5132177;27;20063;-80
2022/12/03 03:44:31;;;;;;;17.00;9.95;;;4.10;99.90;;;;;;5130428;27;20534;-80
2022/12/03 03:46:57;;;;;;;19.80;10.45;;;4.10;99.90;;;;;;5114957;27;20504;-80
2022/12/03 03:49:23;;;;;;;17.75;10.80;;;4.10;99.90;;;;;;5130656;27;20053;-80
2022/12/03 03:51:49;;;;;;;18.98;10.75;;;4.90;99.90;;;;;;5130797;27;20051;-80
2022/12/03 03:54:15;;;;;;;19.00;10.82;;;4.20;99.90;;;;;;5130942;27;20045;-80
2022/12/03 03:56:40;;;;;;;22.60;11.18;;;4.10;99.90;;;;;;5096295;27;20056;-80
2022/12/03 03:59:06;;;;;;;22.38;11.07;;;4.10;99.90;;;;;;5114314;27;20050;-80
2022/12/03 04:01:33;;;;;;;20.05;10.32;;;4.10;99.90;;;;;;5113581;27;20039;-80
2022/12/03 04:03:59;;;;;;;16.50;9.35;;;4.10;99.90;;;;;;5131173;27;20053;-80
2022/12/03 04:06:26;;;;;;;21.05;10.65;;;4.10;99.90;;;;;;5129985;27;20050;-80
2022/12/03 04:08:51;;;;;;;18.65;10.23;;;4.10;99.90;;;;;;5113662;27;20035;-80
2022/12/03 04:14:01;;;;;;;19.35;11.68;;;4.10;99.90;;;;;;5129011;27;20038;-80
2022/12/03 04:16:27;;;;;;;18.75;10.95;;;4.10;99.90;;;;;;5116553;27;20039;-80
2022/12/03 04:18:53;;;;;;;20.42;11.05;;;4.10;99.90;;;;;;5101071;27;20043;-81
2022/12/03 04:24:07;;;;;;;21.35;11.07;;;4.10;99.90;;;;;;5132752;27;20057;-80
2022/12/03 04:29:18;;;;;;;21.42;11.80;;;4.10;99.90;;;;;;5131202;27;20129;-80
2022/12/03 04:37:13;;;;;;;17.88;10.60;;;4.00;99.90;;;;;;5115951;27;20548;-80
2022/12/03 04:39:38;;;;;;;20.95;10.73;;;4.00;99.90;;;;;;5129717;27;20046;-80
2022/12/03 04:42:05;;;;;;;17.02;10.40;;;4.00;99.90;;;;;;5113161;27;20052;-80
2022/12/03 04:44:37;;;;;;;20.50;10.65;;;3.90;99.90;;;;;;5129524;27;20042;-80
2022/12/03 04:47:20;;;;;;;22.02;10.18;;;3.90;99.90;;;;;;5113747;27;20054;-80
2022/12/03 04:49:48;;;;;;;19.20;11.00;;;3.90;99.90;;;;;;5113103;27;20061;-80
2022/12/03 04:52:15;;;;;;;19.30;11.00;;;4.30;99.90;;;;;;5129482;27;20047;-81
2022/12/03 04:54:41;;;;;;;18.40;9.93;;;3.90;99.90;;;;;;5130338;27;20365;-81
2022/12/03 04:57:08;;;;;;;19.63;10.68;;;3.90;99.90;;;;;;5129173;27;20049;-80
2022/12/03 04:59:34;;;;;;;20.73;9.63;;;3.90;99.90;;;;;;5148430;27;20538;-78
2022/12/03 05:02:01;;;;;;;22.40;12.02;;;3.90;99.90;;;;;;5129032;27;20035;-81
2022/12/03 05:04:27;;;;;;;17.50;10.85;;;3.90;99.90;;;;;;5130440;27;20398;-79
2022/12/03 05:06:52;;;;;;;17.77;10.25;;;3.90;99.90;;;;;;5112295;27;20047;-79
2022/12/03 05:09:18;;;;;;;19.33;10.35;;;3.90;99.90;;;;;;5129686;27;20038;-79
2022/12/03 05:11:44;;;;;;;22.38;11.43;;;3.80;99.90;;;;;;5130057;27;20038;-79
2022/12/03 05:14:10;;;;;;;20.10;10.13;;;3.80;99.90;;;;;;5111947;27;20389;-79
2022/12/03 05:16:36;;;;;;;19.77;11.32;;;3.80;99.90;;;;;;5148514;27;20038;-79
2022/12/03 05:19:03;;;;;;;20.73;11.05;;;4.50;99.90;;;;;;5128904;27;20116;-79
2022/12/03 05:21:29;;;;;;;17.95;10.38;;;3.80;99.90;;;;;;5113288;27;20049;-79
2022/12/03 05:23:55;;;;;;;18.42;10.65;;;3.80;99.90;;;;;;5111604;27;20397;-79
2022/12/03 05:26:21;;;;;;;17.38;10.10;;;3.80;99.90;;;;;;5129079;27;20137;-79
2022/12/03 05:28:47;;;;;;;18.45;10.43;;;3.80;99.90;;;;;;5148001;27;20058;-79
2022/12/03 05:31:13;;;;;;;20.58;11.13;;;3.80;99.90;;;;;;5129112;27;20125;-79
2022/12/03 05:33:38;;;;;;;19.48;10.13;;;3.80;99.90;;;;;;5112076;27;20082;-79
2022/12/03 05:36:04;;;;;;;18.42;11.05;;;3.80;99.90;;;;;;5112127;27;20126;-79
2022/12/03 05:38:30;;;;;;;19.88;10.45;;;3.80;99.90;;;;;;5095259;27;20045;-78
2022/12/03 05:40:55;;;;;;;21.27;10.38;;;3.80;99.90;;;;;;5095826;27;20043;-79
2022/12/03 05:43:21;;;;;;;20.58;11.70;;;3.80;99.90;;;;;;5129186;27;20046;-78
2022/12/03 05:45:47;;;;;;;22.02;13.00;;;3.80;99.90;;;;;;5128372;27;20435;-79
2022/12/03 05:48:14;;;;;;;16.13;9.38;;;3.80;99.90;;;;;;5111659;27;20057;-79
2022/12/03 05:50:43;;;;;;;19.50;10.38;;;3.80;99.90;;;;;;5128921;27;20042;-79
2022/12/03 05:53:09;;;;;;;20.20;10.20;;;3.80;99.90;;;;;;5124890;27;20059;-79
2022/12/03 05:55:35;;;;;;;19.75;11.13;;;3.80;99.90;;;;;;5125426;27;20070;-79
2022/12/03 05:58:01;;;;;;;19.23;10.68;;;3.80;99.90;;;;;;5107692;27;20066;-79
2022/12/03 06:00:30;;;;;;;21.30;10.70;;;3.80;99.90;;;;;;5091354;27;20226;-79
2022/12/03 06:02:56;;;;;;;21.60;10.52;;;3.80;99.90;;;;;;5124888;27;20035;-79
2022/12/03 06:05:22;;;;;;;23.17;11.23;;;3.80;99.90;;;;;;5108178;27;20035;-79
2022/12/03 06:07:49;;;;;;;17.67;9.98;;;3.80;99.90;;;;;;5125899;27;20445;-79
2022/12/03 06:10:17;;;;;;;21.50;10.50;;;3.80;99.90;;;;;;5124482;27;20146;-79
2022/12/03 06:12:43;;;;;;;16.80;9.98;;;3.80;99.90;;;;;;5125288;27;20039;-79
2022/12/03 06:15:11;;;;;;;19.70;10.32;;;3.90;99.90;;;;;;5124547;27;20099;-79
2022/12/03 06:17:36;;;;;;;19.05;10.93;;;3.80;99.90;;;;;;5108620;27;20388;-79
2022/12/03 06:20:03;;;;;;;17.83;10.43;;;3.80;99.90;;;;;;5124354;27;20031;-79
2022/12/03 06:22:29;;;;;;;19.00;10.13;;;3.80;99.90;;;;;;5108054;27;20520;-79
2022/12/03 06:24:55;;;;;;;16.83;9.15;;;3.80;99.90;;;;;;5108178;27;20051;-79
2022/12/03 06:27:21;;;;;;;18.40;10.13;;;3.80;99.90;;;;;;5107190;27;20046;-79
2022/12/03 06:29:46;;;;;;;20.88;9.65;;;3.80;99.90;;;;;;5107419;27;20042;-79
2022/12/03 06:32:12;;;;;;;19.92;9.82;;;3.80;99.90;;;;;;5123846;27;20126;-79
2022/12/03 06:34:38;;;;;;;15.30;8.65;;;3.80;99.90;;;;;;5124494;27;20137;-79
2022/12/03 06:37:03;;;;;;;19.00;9.23;;;4.70;99.90;;;;;;5106052;28;20058;-79
2022/12/03 06:39:29;;;;;;;18.73;10.55;;;3.70;99.90;;;;;;5107688;28;20039;-79
2022/12/03 06:41:54;;;;;;;16.27;9.10;;;3.70;99.90;;;;;;5107646;28;20050;-79
2022/12/03 06:44:20;;;;;;;18.58;9.73;;;3.70;99.90;;;;;;5106785;28;20452;-79
2022/12/03 06:46:46;;;;;;;20.00;10.25;;;3.70;99.90;;;;;;5124835;28;20047;-79
2022/12/03 06:49:12;;;;;;;18.70;9.45;;;3.60;99.90;;;;;;5123946;28;20092;-79
2022/12/03 06:51:37;;;;;;;22.70;9.68;;;4.40;99.90;;;;;;5107080;28;20043;-79
2022/12/03 06:54:03;;;;;;;16.98;8.63;;;3.60;99.90;;;;;;5106827;28;20096;-79
2022/12/03 06:56:30;;;;;;;19.33;10.25;;;3.60;99.90;;;;;;5124355;28;20051;-79
2022/12/03 06:58:55;;;;;;;17.50;9.75;;;3.60;99.90;;;;;;5106965;28;20047;-79
2022/12/03 07:01:21;;;;;;;18.70;9.38;;;4.60;99.90;;;;;;5107417;28;20390;-79
2022/12/03 07:03:47;;;;;;;16.35;9.02;;;4.50;99.90;;;;;;5090429;28;20109;-79
2022/12/03 07:06:13;;;;;;;18.73;10.00;;;3.50;99.90;;;;;;5106999;28;20078;-79
2022/12/03 07:08:39;;;;;;;18.90;10.30;;;3.50;99.90;;;;;;5107602;28;20515;-79
2022/12/03 07:11:29;;;;;;;18.10;9.27;;;3.50;99.90;;;;;;5106983;28;20047;-80
2022/12/03 07:13:51;;;;;;;19.95;10.38;;;3.50;99.90;;;;;;5123866;28;20040;-79
2022/12/03 07:16:17;;;;;;;19.85;9.95;;;3.50;99.90;;;;;;5107010;28;20050;-80
2022/12/03 07:18:42;;;;;;;18.55;10.80;;;3.50;99.90;;;;;;5107132;28;20036;-80
2022/12/03 07:21:08;;;;;;;19.08;10.10;;;3.50;99.90;;;;;;5123786;28;20504;-80
2022/12/03 07:23:34;;;;;;;21.10;9.00;;;3.50;99.90;;;;;;5107217;28;20108;-79
2022/12/03 07:25:59;;;;;;;20.17;10.02;;;3.50;99.90;;;;;;5107502;28;20043;-80
2022/12/03 07:28:25;;;;;;;23.17;10.00;;;3.40;99.90;;;;;;5089892;28;20389;-79
2022/12/03 07:30:51;;;;;;;21.38;10.02;;;3.50;99.90;;;;;;5108157;28;20039;-80
2022/12/03 07:33:16;;;;;;;19.35;9.63;;;3.50;99.90;;;;;;5109949;28;20068;-79
2022/12/03 07:35:42;;;;;;;15.93;9.55;;;3.60;99.90;;;;;;5128325;28;20078;-80
2022/12/03 07:38:07;;;;;;;18.67;10.52;;;3.50;99.90;;;;;;5108348;28;20051;-79
2022/12/03 07:40:33;;;;;;;17.80;9.30;;;3.50;99.90;;;;;;5125804;28;20166;-80
2022/12/03 07:42:59;;;;;;;18.23;9.73;;;3.50;99.90;;;;;;5108735;28;20058;-80
2022/12/03 07:45:24;;;;;;;19.95;10.05;;;4.20;99.90;;;;;;5107151;28;20041;-78
2022/12/03 07:47:50;;;;;;;21.60;9.65;;;3.50;99.90;;;;;;5124452;27;20510;-79
2022/12/03 07:50:16;;;;;;;21.85;10.68;;;3.40;99.90;;;;;;5110789;27;20506;-79
2022/12/03 07:52:42;;;;;;;23.83;10.80;;;3.40;99.90;;;;;;5127063;27;20104;-79
2022/12/03 07:55:12;;;;;;;18.17;10.32;;;3.90;99.90;;;;;;5110615;27;20151;-79
2022/12/03 07:57:37;;;;;;;21.73;11.73;;;4.40;99.90;;;;;;5127365;27;20035;-78
2022/12/03 08:00:04;;;;;;;19.98;10.20;;;3.40;99.90;;;;;;5126960;27;20544;-79
2022/12/03 08:02:30;;;;;;;19.45;9.05;;;3.40;99.90;;;;;;5126713;27;20115;-79
2022/12/03 08:04:56;;;;;;;21.33;10.13;;;3.40;99.90;;;;;;5126916;27;20039;-80
2022/12/03 08:07:22;;;;;;;20.90;9.52;;;3.40;99.90;;;;;;5127265;27;20043;-79
2022/12/03 08:09:48;;;;;;;21.83;9.48;;;3.40;99.90;;;;;;5126827;27;20490;-79
2022/12/03 08:12:16;;;;;;;17.85;9.98;;;3.40;99.90;;;;;;5109890;27;20078;-80
2022/12/03 08:14:42;;;;;;;21.23;10.27;;;3.40;99.90;;;;;;5126764;27;20160;-79
2022/12/03 08:17:11;;;;;;;23.15;10.82;;;3.30;99.90;;;;;;5109195;27;20043;-80
2022/12/03 08:19:37;;;;;;;20.73;10.48;;;3.40;99.90;;;;;;5126632;27;20073;-80
2022/12/03 08:22:11;;;;;;;25.13;9.68;;;4.30;99.90;;;;;;5110136;27;20051;-80
2022/12/03 08:24:37;;;;;;;23.30;11.45;;;3.40;99.90;;;;;;5109456;27;20039;-80
2022/12/03 08:27:13;;;;;;;23.67;12.18;;;3.40;99.90;;;;;;5109509;27;20095;-81
2022/12/03 08:29:39;;;;;;;20.70;10.85;;;3.40;99.90;;;;;;5110185;27;20066;-79
2022/12/03 08:32:08;;;;;;;20.65;10.82;;;3.30;99.90;;;;;;5109660;27;20039;-80
2022/12/03 08:34:39;;;;;;;21.13;10.15;;;3.30;99.90;;;;;;5109809;27;20494;-80
2022/12/03 08:37:17;;;;;;;22.35;10.80;;;3.30;99.90;;;;;;5109035;27;20057;-80
2022/12/03 08:39:53;;;;;;;23.98;11.70;;;4.30;99.90;;;;;;5126977;27;20185;-80
2022/12/03 08:42:41;;;;;;;23.27;11.45;;;3.40;99.90;;;;;;5109531;27;20144;-82
2022/12/03 08:45:30;;;;;;;20.63;11.07;;;3.30;99.90;;;;;;5108857;27;20054;-80
2022/12/03 08:48:04;;;;;;;24.65;10.55;;;3.30;99.90;;;;;;5109557;27;20129;-78
2022/12/03 08:50:41;;;;;;;24.67;11.95;;;3.40;99.90;;;;;;5127347;27;20047;-78
2022/12/03 08:53:12;;;;;;;21.08;10.60;;;3.30;99.90;;;;;;5126291;27;20039;-79
2022/12/03 08:55:46;;;;;;;17.73;10.25;;;3.30;99.90;;;;;;5109258;27;20096;-80
2022/12/03 08:58:30;;;;;;;23.08;11.65;;;3.40;99.90;;;;;;5126611;27;20050;-80
2022/12/03 09:01:10;;;;;;;21.92;12.18;;;3.30;99.90;;;;;;5125507;27;20482;-80
2022/12/03 09:03:37;;;;;;;21.45;11.75;;;3.40;99.90;;;;;;5108965;27;20130;-80
2022/12/03 09:06:03;;;;;;;22.52;11.10;;;3.30;99.90;;;;;;5126193;27;20108;-80
2022/12/03 09:08:29;;;;;;;23.55;12.13;;;3.30;99.90;;;;;;5108764;27;20085;-80
2022/12/03 09:10:55;;;;;;;22.90;11.40;;;3.30;99.90;;;;;;5109390;27;20151;-80
2022/12/03 09:13:21;;;;;;;21.33;11.35;;;3.30;99.90;;;;;;5108688;27;20479;-80
2022/12/03 09:15:47;;;;;;;24.77;12.00;;;3.30;99.90;;;;;;5109367;27;20101;-80
2022/12/03 09:18:15;;;;;;;20.75;11.85;;;3.30;99.90;;;;;;5125374;27;20039;-81
2022/12/03 09:20:41;;;;;;;24.15;11.10;;;2.80;99.90;;;;;;5108896;27;20043;-81
2022/12/03 09:23:07;;;;;;;22.63;12.02;;;3.20;99.90;;;;;;5125831;27;20047;-81
2022/12/03 09:25:33;;;;;;;24.85;12.88;;;3.20;99.90;;;;;;5126018;27;20115;-80
2022/12/03 09:27:58;;;;;;;25.98;13.13;;;3.20;99.90;;;;;;5125917;27;20042;-80
2022/12/03 09:30:24;;;;;;;25.15;12.35;;;3.20;99.90;;;;;;5125589;27;20038;-81
2022/12/03 09:32:50;;;;;;;25.42;12.20;;;3.20;99.90;;;;;;5125529;27;20047;-80
2022/12/03 09:35:16;;;;;;;25.70;12.90;;;3.20;99.90;;;;;;5107969;27;20103;-80
2022/12/03 09:37:42;;;;;;;25.45;12.30;;;3.10;99.90;;;;;;5109298;27;20043;-80
2022/12/03 09:40:08;;;;;;;23.98;13.02;;;3.20;99.90;;;;;;5125457;27;20043;-81
2022/12/03 09:42:35;;;;;;;27.25;13.85;;;3.20;99.90;;;;;;5125115;27;20122;-81
2022/12/03 09:45:04;;;;;;;22.63;12.43;;;3.20;99.90;;;;;;5125356;27;20069;-81
2022/12/03 09:47:30;;;;;;;27.92;12.00;;;3.20;99.90;;;;;;5108069;27;20432;-82
2022/12/03 09:49:57;;;;;;;26.42;12.73;;;3.20;99.90;;;;;;5108310;27;20046;-82
2022/12/03 09:52:27;;;;;;;28.05;13.05;;;3.30;99.90;;;;;;5107632;27;20047;-82
2022/12/03 09:54:52;;;;;;;26.02;12.30;;;3.30;99.90;;;;;;5125135;27;20046;-81
2022/12/03 09:57:18;;;;;;;25.55;13.57;;;3.30;99.90;;;;;;5108052;27;20088;-82
2022/12/03 09:59:44;;;;;;;27.35;12.30;;;3.30;99.90;;;;;;5108230;27;20070;-82
2022/12/03 10:02:19;;;;;;;23.58;12.43;;;3.30;99.90;;;;;;5125432;27;20047;-81
2022/12/03 10:04:45;;;;;;;26.02;13.25;;;3.30;99.90;;;;;;5124488;27;20035;-81
2022/12/03 10:07:11;;;;;;;27.65;13.75;;;3.30;99.90;;;;;;5107637;27;20043;-82
2022/12/03 10:09:37;;;;;;;23.63;12.63;;;3.20;99.90;;;;;;5124883;27;20051;-81
2022/12/03 10:12:03;;;;;;;27.10;13.07;;;3.30;99.90;;;;;;5090501;27;20255;-82
2022/12/03 10:14:29;;;;;;;27.85;12.95;;;3.40;99.90;;;;;;5091150;27;20043;-80
2022/12/03 10:16:55;;;;;;;24.27;12.75;;;4.40;99.90;;;;;;5106985;27;20043;-82
2022/12/03 10:19:24;;;;;;;26.23;12.38;;;3.30;99.90;;;;;;5124900;27;20082;-80
2022/12/03 10:21:50;;;;;;;30.52;12.05;;;3.40;99.90;;;;;;5107001;27;20075;-80
2022/12/03 10:24:19;;;;;;;24.67;12.13;;;3.40;99.90;;;;;;5107777;27;20078;-81
2022/12/03 10:26:46;;;;;;;26.40;11.65;;;3.40;99.90;;;;;;5123874;27;20126;-80
2022/12/03 10:29:13;;;;;;;24.10;11.85;;;3.40;99.90;;;;;;5108336;27;20192;-79
2022/12/03 10:31:39;;;;;;;24.35;11.75;;;3.40;99.90;;;;;;5124737;27;20050;-80
2022/12/03 10:34:05;;;;;;;29.20;12.80;;;3.30;99.90;;;;;;5090582;27;20050;-80
2022/12/03 10:36:31;;;;;;;25.20;12.85;;;4.10;99.90;;;;;;5107511;27;20053;-79
2022/12/03 10:39:05;;;;;;;24.35;12.38;;;3.40;99.90;;;;;;5124135;27;20047;-79
2022/12/03 10:41:31;;;;;;;25.17;12.45;;;3.40;99.90;;;;;;5107456;28;20047;-79
2022/12/03 10:44:18;;;;;;;26.60;12.85;;;3.40;99.90;;;;;;5089684;28;20036;-80
2022/12/03 10:47:02;;;;;;;21.08;11.52;;;4.10;99.90;;;;;;5124598;28;20047;-79
2022/12/03 10:49:28;;;;;;;23.33;12.48;;;3.40;99.90;;;;;;5108131;28;20436;-79
2022/12/03 10:51:54;;;;;;;29.17;12.95;;;3.50;99.90;;;;;;5106319;28;20133;-80
2022/12/03 10:54:22;;;;;;;24.75;11.07;;;3.50;99.90;;;;;;5124257;28;20086;-83
2022/12/03 10:56:50;;;;;;;22.58;12.25;;;3.70;99.90;;;;;;5124072;28;20043;-80
2022/12/03 10:59:24;;;;;;;22.65;11.80;;;3.50;99.90;;;;;;5124597;28;20043;-80
2022/12/03 11:01:50;;;;;;;25.15;12.57;;;3.50;99.90;;;;;;5125167;28;20055;-80
2022/12/03 11:04:22;;;;;;;27.25;13.05;;;3.50;99.90;;;;;;5107278;28;20079;-81
2022/12/03 11:06:49;;;;;;;26.35;12.95;;;3.50;99.90;;;;;;5124761;28;20047;-81
2022/12/03 11:09:20;;;;;;;22.25;12.32;;;3.50;99.90;;;;;;5107282;28;20389;-81
2022/12/03 11:11:46;;;;;;;25.13;11.88;;;3.50;99.90;;;;;;5107327;28;20135;-81
2022/12/03 11:14:12;;;;;;;25.65;12.88;;;3.40;99.90;;;;;;5124173;28;20043;-81
2022/12/03 11:16:41;;;;;;;22.45;11.95;;;3.40;99.90;;;;;;5106799;28;20405;-81
2022/12/03 11:19:17;;;;;;;22.23;13.25;;;3.40;99.90;;;;;;5124058;28;20092;-80
2022/12/03 11:22:09;;;;;;;29.23;12.60;;;3.40;99.90;;;;;;5123302;28;20131;-80
2022/12/03 11:24:36;;;;;;;25.52;13.13;;;4.50;99.90;;;;;;5127803;27;20074;-79
2022/12/03 11:27:02;;;;;;;22.83;12.23;;;3.40;99.90;;;;;;5110794;27;20039;-80
2022/12/03 11:29:55;;;;;;;21.73;11.63;;;3.40;99.90;;;;;;5110737;27;20084;-81
2022/12/03 11:32:41;;;;;;;24.33;12.30;;;3.30;99.90;;;;;;5128760;27;20455;-81
2022/12/03 11:35:22;;;;;;;26.60;12.43;;;3.30;99.90;;;;;;5127281;27;20812;-80
2022/12/03 11:37:48;;;;;;;24.58;12.15;;;3.30;99.90;;;;;;5127802;27;20130;-80
2022/12/03 11:40:16;;;;;;;23.63;11.82;;;3.30;99.90;;;;;;5110425;27;20086;-80
2022/12/03 11:42:43;;;;;;;28.08;14.40;;;3.30;99.90;;;;;;5126894;27;20134;-82
2022/12/03 11:45:09;;;;;;;27.33;13.00;;;3.30;99.90;;;;;;5094121;27;20130;-81
2022/12/03 11:48:10;;;;;;;25.48;12.68;;;3.30;99.90;;;;;;5109586;27;20505;-79
2022/12/03 11:50:42;;;;;;;25.42;13.02;;;3.30;99.90;;;;;;5093331;27;20112;-79
2022/12/03 11:53:21;;;;;;;17.33;9.18;;;3.40;99.90;;;;;;5109552;27;20047;-80
2022/12/03 11:56:05;;;;;;;30.63;13.85;;;3.40;99.90;;;;;;5126973;27;20077;-80
2022/12/03 11:58:31;;;;;;;23.42;12.40;;;3.40;99.90;;;;;;5127491;27;20122;-80
2022/12/03 12:00:59;;;;;;;27.77;13.73;;;3.40;99.90;;;;;;5126852;27;20031;-80
2022/12/03 12:03:40;;;;;;;25.35;13.07;;;3.40;99.90;;;;;;5127323;27;20069;-80
2022/12/03 12:06:11;;;;;;;26.17;14.25;;;3.40;99.90;;;;;;5127349;27;20039;-81
2022/12/03 12:08:39;;;;;;;31.95;13.18;;;3.40;99.90;;;;;;5110370;27;20079;-81
2022/12/03 12:11:20;;;;;;;25.13;14.35;;;3.40;99.90;;;;;;5129155;27;20594;-80
2022/12/03 12:13:49;;;;;;;25.70;12.82;;;3.40;99.90;;;;;;5111898;27;20111;-81
2022/12/03 12:16:51;;;;;;;26.77;13.45;;;3.30;99.90;;;;;;5113086;27;20134;-80
2022/12/03 12:19:40;;;;;;;30.02;13.63;;;3.30;99.90;;;;;;5112975;27;20082;-82
2022/12/03 12:22:18;;;;;;;26.40;14.30;;;3.30;99.90;;;;;;5129184;27;20035;-80
2022/12/03 12:24:47;;;;;;;27.25;14.25;;;3.30;99.90;;;;;;5113142;27;20482;-80
2022/12/03 12:27:48;;;;;;;27.20;13.48;;;3.30;99.90;;;;;;5112228;27;20035;-81
2022/12/03 12:30:17;;;;;;;31.23;13.80;;;3.30;99.90;;;;;;5129322;27;20051;-83
2022/12/03 12:32:42;;;;;;;25.38;13.32;;;3.30;99.90;;;;;;5113063;27;20493;-82
2022/12/03 12:35:21;;;;;;;23.67;12.88;;;3.40;99.90;;;;;;5128566;27;20054;-81
2022/12/03 12:37:53;;;;;;;24.60;13.07;;;3.40;99.90;;;;;;5113514;27;20043;-83
2022/12/03 12:40:25;;;;;;;28.88;14.23;;;3.40;99.90;;;;;;5129490;27;20054;-82
2022/12/03 12:42:58;;;;;;;24.00;13.18;;;3.40;99.90;;;;;;5129165;27;20066;-84
2022/12/03 12:45:26;;;;;;;;;;;3.40;99.90;;;;;;5131072;27;20386;-82
2022/12/03 12:48:14;;;;;;;26.25;13.07;;;3.40;99.90;;;;;;5111745;27;19919;-81
2022/12/03 12:50:43;;;;;;;25.83;13.50;;;3.40;99.90;;;;;;5113175;27;20375;-83
2022/12/03 12:53:23;;;;;;;31.13;12.13;;;3.30;99.90;;;;;;5112130;27;20108;-83
2022/12/03 12:56:21;;;;;;;26.58;13.50;;;3.30;99.90;;;;;;5128789;27;20110;-84
2022/12/03 12:58:47;;;;;;;22.92;12.88;;;3.30;99.90;;;;;;5129390;27;20043;-82
2022/12/03 13:01:20;;;;;;;27.02;13.93;;;3.50;99.90;;;;;;5077723;27;20073;-81
2022/12/03 13:03:49;;;;;;;;;;;3.20;99.90;;;;;;5130213;27;20046;-81